Time;durP1;ratioP1;P1;durP2;ratioP2;P2;SDS_P1;SDS_P2;PMS_P1;PMS_P2;Temp;Humidity;BMP_temperature;BMP_pressure;BME280_temperature;BME280_humidity;BME280_pressure;Samples;Min_cycle;Max_cycle;Signal;HPM_P1;HPM_P2
2023/07/06 00:00:15;;;;;;;2.42;1.88;;;14.80;99.90;;;;;;4970198;28;20232;-79
2023/07/06 00:02:41;;;;;;;3.63;1.90;;;14.80;99.90;;;;;;4970202;28;20543;-78
2023/07/06 00:05:07;;;;;;;3.63;1.80;;;14.80;99.90;;;;;;4970398;28;20667;-79
2023/07/06 00:07:34;;;;;;;2.08;1.92;;;14.90;99.90;;;;;;4969223;28;20609;-78
2023/07/06 00:10:00;;;;;;;2.78;1.80;;;15.00;99.90;;;;;;4968508;28;20197;-79
2023/07/06 00:12:26;;;;;;;3.08;1.70;;;15.00;99.90;;;;;;4970580;28;20643;-79
2023/07/06 00:14:51;;;;;;;2.17;1.80;;;15.30;99.90;;;;;;4970500;28;20260;-77
2023/07/06 00:17:17;;;;;;;2.00;1.80;;;15.50;99.90;;;;;;4969107;28;20268;-79
2023/07/06 00:19:43;;;;;;;2.25;1.90;;;15.20;99.90;;;;;;4970084;28;20177;-79
2023/07/06 00:22:10;;;;;;;2.50;1.67;;;15.40;99.90;;;;;;4970438;28;20173;-77
2023/07/06 00:24:37;;;;;;;1.75;1.50;;;15.20;99.90;;;;;;4970151;28;20174;-79
2023/07/06 00:27:02;;;;;;;3.25;1.83;;;15.20;99.90;;;;;;4967735;28;20578;-79
2023/07/06 00:29:33;;;;;;;3.22;1.75;;;15.20;99.90;;;;;;4967714;28;20268;-79
2023/07/06 00:32:26;;;;;;;3.28;1.88;;;15.40;99.90;;;;;;4970184;28;20176;-78
2023/07/06 00:34:52;;;;;;;2.13;1.80;;;15.30;99.90;;;;;;4968741;28;20268;-78
2023/07/06 00:37:20;;;;;;;1.92;1.75;;;15.10;99.90;;;;;;4970016;28;20200;-79
2023/07/06 00:39:47;;;;;;;2.67;2.05;;;15.20;99.90;;;;;;4968044;28;20200;-78
2023/07/06 00:42:19;;;;;;;1.67;1.58;;;15.10;99.90;;;;;;4968771;28;20172;-79
2023/07/06 00:44:59;;;;;;;2.65;1.95;;;15.10;99.90;;;;;;4969649;28;20173;-78
2023/07/06 00:47:45;;;;;;;2.13;1.70;;;15.10;99.90;;;;;;4967330;28;20276;-78
2023/07/06 00:50:20;;;;;;;3.10;1.92;;;15.10;99.90;;;;;;4967312;28;20173;-77
2023/07/06 00:52:54;;;;;;;2.20;1.63;;;15.10;99.90;;;;;;4969912;28;20204;-78
2023/07/06 00:55:27;;;;;;;2.13;1.30;;;15.30;99.90;;;;;;4969478;28;20208;-79
2023/07/06 00:57:57;;;;;;;2.65;1.88;;;15.20;99.90;;;;;;4967914;28;20188;-79
2023/07/06 01:00:23;;;;;;;2.15;1.40;;;15.20;99.90;;;;;;4966994;28;20267;-79
2023/07/06 01:02:57;;;;;;;1.70;1.20;;;15.20;99.90;;;;;;4968467;28;20185;-78
2023/07/06 01:05:26;;;;;;;1.45;1.35;;;15.20;99.90;;;;;;4966025;28;20582;-76
2023/07/06 01:07:55;;;;;;;1.60;1.48;;;15.30;99.90;;;;;;4968147;28;20259;-78
2023/07/06 01:10:22;;;;;;;2.03;1.40;;;15.30;99.90;;;;;;4966603;28;20263;-78
2023/07/06 01:12:47;;;;;;;2.45;1.65;;;15.50;99.90;;;;;;4969399;28;20205;-78
2023/07/06 01:15:16;;;;;;;1.58;1.45;;;15.30;99.90;;;;;;4969268;28;20704;-77
2023/07/06 01:17:56;;;;;;;1.70;1.42;;;15.30;99.90;;;;;;4969246;28;20170;-78
2023/07/06 01:20:41;;;;;;;1.67;1.58;;;15.40;99.90;;;;;;4968403;28;20184;-77
2023/07/06 01:23:42;;;;;;;2.08;1.60;;;15.30;99.90;;;;;;4969270;28;20591;-78
2023/07/06 01:26:13;;;;;;;3.20;2.00;;;15.30;99.90;;;;;;4983993;28;20204;-79
2023/07/06 01:28:45;;;;;;;2.83;1.80;;;15.30;99.90;;;;;;4969163;28;20209;-79
2023/07/06 01:31:48;;;;;;;2.30;1.80;;;15.20;99.90;;;;;;4968388;28;20192;-79
2023/07/06 01:34:24;;;;;;;3.53;1.90;;;15.20;99.90;;;;;;4968384;28;20196;-78
2023/07/06 01:36:56;;;;;;;2.55;1.58;;;15.20;99.90;;;;;;4967165;28;20211;-78
2023/07/06 01:39:26;;;;;;;3.85;1.90;;;15.20;99.90;;;;;;4963202;28;20440;-78
2023/07/06 01:42:12;;;;;;;1.92;1.50;;;15.30;99.90;;;;;;4965697;28;20180;-79
2023/07/06 01:44:40;;;;;;;2.72;1.80;;;15.10;99.90;;;;;;4964907;28;20231;-79
2023/07/06 01:47:06;;;;;;;2.33;1.80;;;15.10;1.00;;;;;;4965139;28;20229;-78
2023/07/06 01:49:33;;;;;;;2.53;1.90;;;15.00;1.00;;;;;;4963054;28;20224;-79
2023/07/06 01:52:15;;;;;;;1.80;1.70;;;15.10;1.00;;;;;;4962628;28;20191;-81
2023/07/06 01:54:50;;;;;;;4.07;1.80;;;15.10;1.00;;;;;;4962814;28;20267;-79
2023/07/06 01:57:25;;;;;;;2.72;1.70;;;15.30;1.00;;;;;;4964899;28;20204;-79
2023/07/06 01:59:55;;;;;;;2.75;2.25;;;15.20;1.00;;;;;;4967659;28;20643;-79
2023/07/06 02:02:21;;;;;;;2.78;2.13;;;15.20;1.00;;;;;;4967166;28;20189;-79
2023/07/06 02:04:47;;;;;;;1.90;1.70;;;15.20;99.90;;;;;;4967191;28;20181;-79
2023/07/06 02:07:16;;;;;;;2.45;1.90;;;15.30;1.00;;;;;;4966995;28;20209;-79
2023/07/06 02:09:46;;;;;;;3.70;1.90;;;15.30;99.90;;;;;;4965930;28;20259;-78
2023/07/06 02:12:13;;;;;;;2.20;1.92;;;15.20;99.90;;;;;;4965185;28;20181;-79
2023/07/06 02:14:40;;;;;;;2.00;1.90;;;15.30;1.00;;;;;;4966367;28;20181;-78
2023/07/06 02:17:07;;;;;;;3.20;2.22;;;15.20;99.90;;;;;;4967068;28;20704;-79
2023/07/06 02:19:35;;;;;;;4.22;2.10;;;15.30;99.90;;;;;;4964959;28;20210;-78
2023/07/06 02:22:04;;;;;;;2.72;1.90;;;15.30;99.90;;;;;;4966934;28;20262;-80
2023/07/06 02:24:32;;;;;;;3.38;2.25;;;15.20;99.90;;;;;;4968285;28;20196;-78
2023/07/06 02:26:58;;;;;;;3.03;1.77;;;15.20;99.90;;;;;;4965637;28;20215;-77
2023/07/06 02:29:24;;;;;;;3.22;1.90;;;15.50;1.00;;;;;;4966307;28;20185;-79
2023/07/06 02:31:49;;;;;;;2.40;1.98;;;15.20;99.90;;;;;;4966746;28;20657;-78
2023/07/06 02:34:24;;;;;;;2.25;1.90;;;15.20;99.90;;;;;;4965154;28;20609;-78
2023/07/06 02:36:53;;;;;;;2.42;2.00;;;15.10;1.00;;;;;;4965261;28;20546;-78
2023/07/06 02:39:25;;;;;;;2.72;1.70;;;15.20;99.90;;;;;;4965891;28;20181;-79
2023/07/06 02:41:53;;;;;;;4.72;2.33;;;15.10;1.00;;;;;;4966235;28;20185;-79
2023/07/06 02:44:20;;;;;;;3.60;2.17;;;15.10;1.00;;;;;;4965269;28;20553;-78
2023/07/06 02:46:47;;;;;;;3.58;2.30;;;15.10;1.00;;;;;;4965585;28;20205;-80
2023/07/06 02:49:12;;;;;;;2.08;1.90;;;15.40;1.00;;;;;;4964933;28;20547;-78
2023/07/06 02:51:39;;;;;;;3.33;2.50;;;15.10;99.90;;;;;;4966189;28;20193;-78
2023/07/06 02:54:04;;;;;;;2.60;2.30;;;15.20;99.90;;;;;;4966544;28;20244;-79
2023/07/06 02:56:30;;;;;;;3.80;2.42;;;15.10;99.90;;;;;;4968362;28;20243;-79
2023/07/06 02:58:56;;;;;;;2.85;2.05;;;15.40;1.00;;;;;;4971001;28;20208;-78
2023/07/06 03:01:22;;;;;;;5.30;2.67;;;15.20;99.90;;;;;;4970085;28;20192;-79
2023/07/06 03:03:49;;;;;;;2.70;2.40;;;15.20;1.00;;;;;;4970471;28;20193;-77
2023/07/06 03:06:16;;;;;;;3.22;2.38;;;15.30;1.00;;;;;;4970022;28;20223;-79
2023/07/06 03:08:42;;;;;;;4.70;2.50;;;15.30;1.00;;;;;;4969976;28;20197;-77
2023/07/06 03:11:10;;;;;;;2.75;2.28;;;15.20;1.00;;;;;;4970744;28;20251;-79
2023/07/06 03:13:36;;;;;;;3.60;2.78;;;15.20;1.00;;;;;;4970072;28;20296;-78
2023/07/06 03:16:04;;;;;;;2.60;2.40;;;15.30;1.00;;;;;;4971443;28;20691;-78
2023/07/06 03:18:30;;;;;;;2.85;2.40;;;15.10;99.90;;;;;;4970164;28;20224;-78
2023/07/06 03:20:56;;;;;;;2.67;2.45;;;15.00;1.00;;;;;;4969686;28;20212;-79
2023/07/06 03:23:22;;;;;;;3.13;2.75;;;15.00;1.00;;;;;;4970544;28;20176;-78
2023/07/06 03:25:51;;;;;;;2.97;2.55;;;14.90;1.00;;;;;;4970666;28;20200;-78
2023/07/06 03:28:18;;;;;;;3.80;2.72;;;14.80;1.00;;;;;;4970037;28;20188;-79
2023/07/06 03:30:44;;;;;;;3.55;2.63;;;14.80;1.00;;;;;;4969825;28;20189;-79
2023/07/06 03:33:10;;;;;;;3.13;2.83;;;14.70;1.00;;;;;;4969602;28;20201;-79
2023/07/06 03:35:40;;;;;;;3.22;2.80;;;14.60;1.00;;;;;;4970166;28;20205;-78
2023/07/06 03:38:05;;;;;;;3.17;2.50;;;14.70;1.00;;;;;;4970065;28;20181;-78
2023/07/06 03:40:31;;;;;;;2.88;2.60;;;14.70;1.00;;;;;;4969214;28;20223;-79
2023/07/06 03:42:57;;;;;;;3.00;2.70;;;14.50;1.00;;;;;;4968758;28;20644;-79
2023/07/06 03:45:24;;;;;;;3.30;3.00;;;14.50;1.00;;;;;;4968336;28;20779;-78
2023/07/06 03:47:50;;;;;;;3.78;3.00;;;14.50;1.00;;;;;;4969663;28;20188;-78
2023/07/06 03:50:18;;;;;;;3.20;2.90;;;14.60;1.00;;;;;;4968986;28;20177;-78
2023/07/06 03:52:44;;;;;;;3.30;3.00;;;14.60;1.00;;;;;;4969497;28;20216;-78
2023/07/06 03:55:18;;;;;;;3.00;2.70;;;14.70;1.00;;;;;;4968248;28;20209;-79
2023/07/06 03:57:45;;;;;;;4.05;3.10;;;14.60;1.00;;;;;;4969316;28;20176;-79
2023/07/06 04:00:22;;;;;;;3.53;3.20;;;14.60;1.00;;;;;;4968962;28;20177;-79
2023/07/06 04:02:49;;;;;;;3.83;3.33;;;14.60;1.00;;;;;;4967924;28;20188;-78
2023/07/06 04:05:17;;;;;;;4.72;2.90;;;14.80;1.00;;;;;;4969092;28;20184;-78
2023/07/06 04:07:52;;;;;;;3.70;3.40;;;14.60;1.00;;;;;;4968920;28;20177;-79
2023/07/06 04:10:21;;;;;;;3.70;3.40;;;14.90;1.00;;;;;;4969014;28;20207;-79
2023/07/06 04:12:48;;;;;;;3.55;3.28;;;14.70;1.00;;;;;;4967251;28;20211;-80
2023/07/06 04:15:17;;;;;;;4.05;3.00;;;14.80;1.00;;;;;;4967674;28;20189;-79
2023/07/06 04:17:44;;;;;;;3.40;3.10;;;14.80;1.00;;;;;;4969030;28;20268;-78
2023/07/06 04:20:24;;;;;;;4.32;3.55;;;14.80;1.00;;;;;;4968987;28;20189;-79
2023/07/06 04:22:54;;;;;;;3.40;3.10;;;14.90;1.00;;;;;;4967636;28;20196;-78
2023/07/06 04:25:22;;;;;;;3.60;3.30;;;14.90;1.00;;;;;;4967498;28;20236;-78
2023/07/06 04:27:48;;;;;;;4.05;3.40;;;14.90;1.00;;;;;;4968754;28;20185;-80
2023/07/06 04:30:16;;;;;;;3.90;3.50;;;15.00;1.00;;;;;;4966995;28;20553;-80
2023/07/06 04:32:45;;;;;;;5.03;3.60;;;15.00;1.00;;;;;;4968503;28;20212;-78
2023/07/06 04:35:12;;;;;;;3.55;3.25;;;15.20;1.00;;;;;;4967454;28;20277;-79
2023/07/06 04:37:38;;;;;;;3.83;3.53;;;15.20;1.00;;;;;;4967814;28;20514;-79
2023/07/06 04:40:11;;;;;;;3.15;2.85;;;15.20;1.00;;;;;;4969105;28;20188;-80
2023/07/06 04:42:37;;;;;;;4.10;3.13;;;15.20;1.00;;;;;;4967071;28;20267;-78
2023/07/06 04:45:04;;;;;;;3.90;2.88;;;15.50;1.00;;;;;;4968070;28;20594;-79
2023/07/06 04:47:29;;;;;;;3.45;3.15;;;15.30;1.00;;;;;;4982958;28;20185;-79
2023/07/06 04:49:55;;;;;;;4.80;3.25;;;15.40;1.00;;;;;;4966627;28;20247;-79
2023/07/06 04:52:21;;;;;;;4.22;3.40;;;15.40;1.00;;;;;;4968296;28;20259;-77
2023/07/06 04:54:50;;;;;;;4.20;3.15;;;15.80;1.00;;;;;;4968202;28;20268;-79
2023/07/06 04:57:16;;;;;;;2.78;2.58;;;15.60;1.00;;;;;;4968002;28;20201;-80
2023/07/06 04:59:43;;;;;;;3.05;2.78;;;15.70;99.90;;;;;;4966877;28;20188;-79
2023/07/06 05:02:10;;;;;;;2.85;2.55;;;15.90;1.00;;;;;;4966556;28;20177;-77
2023/07/06 05:04:40;;;;;;;3.65;2.53;;;16.80;99.90;;;;;;4982905;28;20189;-80
2023/07/06 05:07:06;;;;;;;4.25;2.40;;;18.70;96.30;;;;;;4968093;28;20836;-79
2023/07/06 05:09:32;;;;;;;4.35;2.38;;;20.40;1.00;;;;;;4966749;28;20235;-79
2023/07/06 05:11:58;;;;;;;1.92;1.77;;;21.60;1.00;;;;;;4967209;28;20193;-78
2023/07/06 05:14:24;;;;;;;1.90;1.70;;;22.80;1.00;;;;;;4968255;28;20259;-79
2023/07/06 05:16:50;;;;;;;2.85;1.95;;;23.70;1.00;;;;;;4966968;28;20688;-79
2023/07/06 05:19:16;;;;;;;2.47;2.20;;;24.30;1.00;;;;;;4967262;28;20653;-78
2023/07/06 05:21:42;;;;;;;2.35;1.80;;;25.10;1.00;;;;;;4967274;28;20188;-79
2023/07/06 05:24:08;;;;;;;2.88;1.88;;;25.40;1.00;;;;;;4968225;28;20192;-79
2023/07/06 05:26:33;;;;;;;1.45;1.35;;;25.80;99.90;;;;;;4967244;28;20214;-78
2023/07/06 05:28:59;;;;;;;1.77;1.60;;;26.30;1.00;;;;;;4968040;28;20188;-80
2023/07/06 05:31:26;;;;;;;2.50;1.70;;;26.70;99.90;;;;;;4966959;28;20275;-80
2023/07/06 05:33:52;;;;;;;2.35;1.67;;;26.90;99.90;;;;;;4966704;28;20197;-79
2023/07/06 05:36:18;;;;;;;3.67;1.60;;;27.10;99.90;;;;;;4967180;28;20251;-79
2023/07/06 05:38:43;;;;;;;1.95;1.60;;;27.30;99.90;;;;;;4967747;28;20189;-80
2023/07/06 05:41:09;;;;;;;2.30;1.65;;;27.80;99.90;;;;;;4967361;28;20648;-80
2023/07/06 05:43:35;;;;;;;2.80;1.95;;;27.90;99.90;;;;;;4967416;28;20256;-80
2023/07/06 05:46:00;;;;;;;2.75;1.73;;;28.10;99.90;;;;;;4967272;28;20700;-80
2023/07/06 05:48:26;;;;;;;2.03;1.80;;;28.30;99.90;;;;;;4967613;28;20189;-79
2023/07/06 05:50:51;;;;;;;2.15;1.90;;;28.30;99.90;;;;;;4966869;28;20185;-80
2023/07/06 05:53:17;;;;;;;2.20;1.65;;;28.30;99.90;;;;;;4967481;28;20580;-79
2023/07/06 05:55:43;;;;;;;1.90;1.55;;;28.20;99.90;;;;;;4966489;28;20197;-81
2023/07/06 05:58:11;;;;;;;2.45;1.77;;;28.10;99.90;;;;;;4967571;28;20719;-80
2023/07/06 06:00:39;;;;;;;2.53;1.95;;;28.60;99.90;;;;;;4967267;28;20343;-80
2023/07/06 06:03:05;;;;;;;3.08;1.50;;;28.70;99.90;;;;;;4965952;28;20193;-79
2023/07/06 06:05:31;;;;;;;2.25;1.77;;;29.10;99.90;;;;;;4967223;28;20371;-79
2023/07/06 06:07:58;;;;;;;2.50;2.10;;;29.30;99.90;;;;;;4965858;28;20731;-79
2023/07/06 06:10:24;;;;;;;2.08;1.88;;;29.00;99.90;;;;;;4966741;28;20695;-79
2023/07/06 06:12:49;;;;;;;1.88;1.67;;;29.00;99.90;;;;;;4967549;28;20212;-79
2023/07/06 06:15:16;;;;;;;2.08;1.50;;;28.70;99.90;;;;;;4966778;28;20189;-79
2023/07/06 06:17:44;;;;;;;3.17;1.90;;;29.10;99.90;;;;;;4966133;28;20199;-79
2023/07/06 06:20:11;;;;;;;2.50;1.80;;;29.20;99.90;;;;;;4967399;28;20675;-79
2023/07/06 06:22:37;;;;;;;2.47;1.90;;;29.20;99.90;;;;;;4967109;28;20185;-80
2023/07/06 06:25:04;;;;;;;3.25;1.88;;;28.90;99.90;;;;;;4966250;28;20181;-78
2023/07/06 06:27:30;;;;;;;3.25;2.20;;;28.60;99.90;;;;;;4965676;28;20239;-78
2023/07/06 06:29:56;;;;;;;2.70;2.50;;;28.20;99.90;;;;;;4969393;28;20188;-78
2023/07/06 06:32:22;;;;;;;3.05;2.05;;;28.50;99.90;;;;;;4970416;28;20235;-78
2023/07/06 06:34:47;;;;;;;3.88;2.17;;;28.60;99.90;;;;;;4969298;28;20255;-78
2023/07/06 06:37:16;;;;;;;2.90;1.98;;;29.40;99.90;;;;;;4970102;28;20244;-79
2023/07/06 06:39:42;;;;;;;2.10;1.75;;;29.30;99.90;;;;;;4969427;28;20272;-79
2023/07/06 06:42:08;;;;;;;3.30;2.22;;;29.40;99.90;;;;;;4970429;28;20275;-80
2023/07/06 06:44:35;;;;;;;2.90;2.10;;;29.10;99.90;;;;;;4970814;28;20590;-79
2023/07/06 06:47:04;;;;;;;3.85;2.22;;;28.80;99.90;;;;;;4969615;28;20379;-79
2023/07/06 06:49:30;;;;;;;2.75;2.25;;;28.60;99.90;;;;;;4971453;28;20204;-80
2023/07/06 06:51:56;;;;;;;3.78;2.10;;;28.20;99.90;;;;;;4972802;28;20193;-80
2023/07/06 06:54:21;;;;;;;4.05;2.30;;;28.90;99.90;;;;;;4970785;28;20291;-79
2023/07/06 06:56:49;;;;;;;3.65;2.40;;;28.00;99.90;;;;;;4971577;28;20672;-78
2023/07/06 06:59:15;;;;;;;3.53;2.30;;;26.40;99.90;;;;;;4972396;28;20252;-80
2023/07/06 07:01:41;;;;;;;3.15;2.33;;;25.90;99.90;;;;;;4971753;28;20315;-81
2023/07/06 07:04:10;;;;;;;3.40;2.20;;;26.80;99.90;;;;;;4969291;28;20200;-77
2023/07/06 07:06:38;;;;;;;4.38;2.40;;;26.90;99.90;;;;;;4972121;28;20196;-79
2023/07/06 07:09:05;;;;;;;4.88;2.70;;;26.60;99.90;;;;;;4972026;28;20200;-79
2023/07/06 07:11:31;;;;;;;3.88;2.38;;;27.40;99.90;;;;;;4970364;28;20254;-79
2023/07/06 07:13:56;;;;;;;4.43;2.70;;;28.60;99.90;;;;;;4971764;28;20216;-80
2023/07/06 07:16:23;;;;;;;3.40;2.58;;;28.40;99.90;;;;;;4970937;28;20200;-80
2023/07/06 07:18:49;;;;;;;3.38;2.20;;;27.40;99.90;;;;;;4970675;28;20184;-78
2023/07/06 07:21:19;;;;;;;3.70;2.33;;;26.80;99.90;;;;;;4970769;28;20232;-80
2023/07/06 07:23:48;;;;;;;3.92;2.22;;;27.10;99.90;;;;;;4969406;28;20200;-81
2023/07/06 07:26:20;;;;;;;4.63;1.90;;;27.10;99.90;;;;;;4967793;28;20232;-76
2023/07/06 07:28:51;;;;;;;6.10;1.98;;;26.30;99.90;;;;;;4964253;28;21154;-78
2023/07/06 07:31:18;;;;;;;4.05;2.25;;;24.70;99.90;;;;;;4968544;28;20185;-79
2023/07/06 07:33:46;;;;;;;3.75;2.17;;;24.90;99.90;;;;;;4965981;28;20237;-80
2023/07/06 07:36:13;;;;;;;5.15;2.20;;;24.30;99.90;;;;;;4966876;28;20193;-79
2023/07/06 07:38:39;;;;;;;6.15;2.78;;;24.00;99.90;;;;;;4965937;28;20181;-79
2023/07/06 07:41:07;;;;;;;4.75;2.35;;;23.20;99.90;;;;;;4965993;28;21015;-78
2023/07/06 07:43:35;;;;;;;3.38;2.60;;;22.10;99.90;;;;;;4965953;28;20309;-78
2023/07/06 07:46:05;;;;;;;6.13;2.83;;;21.60;99.90;;;;;;4968010;28;20218;-80
2023/07/06 07:48:37;;;;;;;4.68;2.83;;;21.10;99.90;;;;;;4969432;28;20255;-80
2023/07/06 07:51:05;;;;;;;4.30;2.47;;;20.70;99.90;;;;;;4968077;28;20299;-82
2023/07/06 07:53:33;;;;;;;2.95;2.10;;;21.00;99.90;;;;;;4968888;28;20209;-80
2023/07/06 07:55:59;;;;;;;3.03;2.10;;;21.30;99.90;;;;;;4967751;28;20205;-80
2023/07/06 07:58:26;;;;;;;5.90;2.08;;;21.20;99.90;;;;;;4968681;28;20177;-81
2023/07/06 08:00:55;;;;;;;2.83;2.20;;;21.30;99.90;;;;;;4984772;28;20188;-81
2023/07/06 08:03:22;;;;;;;3.38;2.00;;;21.20;99.90;;;;;;4983636;28;20192;-81
2023/07/06 08:05:47;;;;;;;2.92;2.00;;;20.90;99.90;;;;;;4965467;28;20211;-80
2023/07/06 08:08:13;;;;;;;4.10;2.13;;;20.80;99.90;;;;;;4968855;28;20656;-80
2023/07/06 08:10:40;;;;;;;5.22;2.40;;;20.90;99.90;;;;;;4969310;28;20197;-78
2023/07/06 08:13:09;;;;;;;3.90;2.20;;;20.80;99.90;;;;;;4970104;28;20236;-80
2023/07/06 08:15:38;;;;;;;4.65;2.42;;;20.70;99.90;;;;;;4970421;28;20200;-80
2023/07/06 08:18:06;;;;;;;5.55;1.98;;;20.50;99.90;;;;;;4968027;28;20189;-80
2023/07/06 08:20:33;;;;;;;2.85;2.03;;;20.50;99.90;;;;;;4967469;28;20192;-79
2023/07/06 08:23:02;;;;;;;2.25;2.05;;;20.60;99.90;;;;;;4967753;28;20276;-81
2023/07/06 08:25:28;;;;;;;3.03;1.85;;;20.50;99.90;;;;;;4969224;28;21060;-80
2023/07/06 08:27:57;;;;;;;3.50;1.83;;;20.30;99.90;;;;;;4968545;28;20219;-82
2023/07/06 08:30:23;;;;;;;4.05;1.90;;;20.30;99.90;;;;;;4969299;28;20185;-79
2023/07/06 08:32:49;;;;;;;3.03;2.20;;;20.20;99.90;;;;;;4971052;28;20232;-81
2023/07/06 08:35:19;;;;;;;5.57;2.08;;;20.00;99.90;;;;;;4984615;28;20189;-80
2023/07/06 08:37:44;;;;;;;3.35;2.00;;;20.00;99.90;;;;;;4984794;28;20554;-79
2023/07/06 08:40:17;;;;;;;3.80;1.92;;;20.00;99.90;;;;;;4964954;28;20188;-79
2023/07/06 08:42:47;;;;;;;3.17;2.20;;;19.80;99.90;;;;;;4968745;28;20177;-82
2023/07/06 08:45:22;;;;;;;2.88;2.30;;;19.80;99.90;;;;;;4968773;28;20181;-80
2023/07/06 08:47:48;;;;;;;2.38;1.98;;;19.80;99.90;;;;;;4969481;28;20180;-81
2023/07/06 08:50:20;;;;;;;2.83;2.00;;;20.00;1.00;;;;;;4969089;28;20287;-80
2023/07/06 08:52:46;;;;;;;2.90;1.95;;;20.10;1.00;;;;;;4966008;28;20200;-83
2023/07/06 08:55:15;;;;;;;3.08;1.67;;;20.50;1.00;;;;;;4969423;28;20208;-80
2023/07/06 08:57:45;;;;;;;2.97;1.73;;;20.70;99.90;;;;;;4968650;28;20169;-81
2023/07/06 09:00:32;;;;;;;3.67;1.75;;;20.60;99.90;;;;;;4969891;28;20181;-80
2023/07/06 09:03:06;;;;;;;2.72;1.60;;;20.70;1.00;;;;;;4968719;28;20181;-82
2023/07/06 09:05:38;;;;;;;4.05;1.83;;;20.90;1.00;;;;;;4969583;28;20633;-79
2023/07/06 09:08:03;;;;;;;2.55;1.77;;;21.00;1.00;;;;;;4967946;28;20189;-82
2023/07/06 09:10:30;;;;;;;3.60;1.75;;;21.00;1.00;;;;;;4967951;28;20192;-80
2023/07/06 09:13:28;;;;;;;2.50;1.80;;;21.00;99.90;;;;;;4967901;28;20216;-81
2023/07/06 09:16:03;;;;;;;2.30;1.40;;;20.80;99.90;;;;;;4982597;28;20228;-77
2023/07/06 09:18:31;;;;;;;3.22;1.70;;;20.80;99.90;;;;;;4967489;28;20184;-81
2023/07/06 09:20:59;;;;;;;1.90;1.65;;;20.70;99.90;;;;;;4967442;28;20185;-77
2023/07/06 09:23:25;;;;;;;1.83;1.27;;;20.90;99.90;;;;;;4968662;28;20208;-82
2023/07/06 09:25:53;;;;;;;2.03;1.30;;;20.90;99.90;;;;;;4967948;28;20566;-80
2023/07/06 09:28:23;;;;;;;1.65;1.40;;;20.90;99.90;;;;;;4968185;28;20279;-81
2023/07/06 09:31:04;;;;;;;2.35;1.70;;;21.10;99.90;;;;;;4969234;28;20180;-78
2023/07/06 09:33:30;;;;;;;2.30;1.52;;;21.20;99.90;;;;;;4968944;28;20298;-82
2023/07/06 09:35:57;;;;;;;2.78;1.50;;;21.20;99.90;;;;;;4968961;28;20340;-80
2023/07/06 09:38:24;;;;;;;2.30;1.60;;;21.30;99.90;;;;;;4967490;28;20550;-82
2023/07/06 09:40:52;;;;;;;3.05;1.50;;;21.30;99.90;;;;;;4967460;28;20189;-79
2023/07/06 09:43:27;;;;;;;2.40;1.80;;;21.40;99.90;;;;;;4968366;28;20671;-80
2023/07/06 09:45:55;;;;;;;2.63;1.40;;;21.30;99.90;;;;;;4969219;28;20227;-81
2023/07/06 09:48:32;;;;;;;3.80;1.65;;;21.30;99.90;;;;;;4969050;28;20192;-80
2023/07/06 09:51:25;;;;;;;2.80;1.38;;;21.30;99.90;;;;;;4968849;28;20254;-80
2023/07/06 09:54:01;;;;;;;2.10;1.50;;;21.50;99.90;;;;;;4967933;28;20223;-82
2023/07/06 09:56:29;;;;;;;3.47;1.80;;;21.60;99.90;;;;;;4968363;28;20211;-79
2023/07/06 09:58:59;;;;;;;2.15;1.55;;;21.60;99.90;;;;;;4968775;28;20222;-81
2023/07/06 10:01:34;;;;;;;1.88;1.50;;;21.60;99.90;;;;;;4968620;28;20345;-82
2023/07/06 10:04:36;;;;;;;2.45;1.80;;;21.70;99.90;;;;;;4968691;28;20659;-81
2023/07/06 10:07:05;;;;;;;1.77;1.55;;;21.70;99.90;;;;;;5008616;23;20234;-81
2023/07/06 10:10:06;;;;;;;3.70;1.80;;;21.80;99.90;;;;;;5007992;28;20182;-81
2023/07/06 10:12:58;;;;;;;2.55;1.48;;;22.10;99.90;;;;;;5005575;28;20207;-78
2023/07/06 10:15:51;;;;;;;2.90;1.77;;;22.10;99.90;;;;;;5005964;28;20293;-79
2023/07/06 10:18:30;;;;;;;2.75;1.80;;;21.70;99.90;;;;;;4996962;28;20639;-79
2023/07/06 10:21:15;;;;;;;2.88;1.77;;;21.40;99.90;;;;;;4999444;28;20179;-78
2023/07/06 10:23:57;;;;;;;4.07;1.58;;;21.40;99.90;;;;;;4996811;28;20272;-79
2023/07/06 10:26:47;;;;;;;3.42;1.50;;;21.50;99.90;;;;;;4998823;28;20211;-80
2023/07/06 10:29:18;;;;;;;2.10;1.50;;;21.90;99.90;;;;;;5006255;28;20188;-79
2023/07/06 10:31:51;;;;;;;1.83;1.42;;;22.20;99.90;;;;;;4996977;28;20215;-78
2023/07/06 10:34:35;;;;;;;2.35;1.85;;;22.30;99.90;;;;;;4997730;28;20286;-80
2023/07/06 10:37:03;;;;;;;3.22;1.80;;;22.30;99.90;;;;;;4995975;28;20204;-81
2023/07/06 10:39:29;;;;;;;2.78;1.73;;;22.10;99.90;;;;;;4996293;28;20216;-83
2023/07/06 10:42:03;;;;;;;2.53;1.67;;;22.00;99.90;;;;;;4996365;28;20342;-82
2023/07/06 10:44:48;;;;;;;4.03;1.65;;;21.70;99.90;;;;;;4997831;28;20215;-84
2023/07/06 10:47:35;;;;;;;2.08;1.40;;;21.70;99.90;;;;;;4995980;28;20747;-79
2023/07/06 10:50:07;;;;;;;3.15;1.90;;;21.70;99.90;;;;;;4997377;28;20555;-80
2023/07/06 10:52:43;;;;;;;2.05;1.45;;;22.00;99.90;;;;;;4998003;28;20533;-80
2023/07/06 10:55:11;;;;;;;2.05;1.60;;;22.20;99.90;;;;;;5012005;28;20187;-83
2023/07/06 10:57:48;;;;;;;4.85;1.30;;;22.40;99.90;;;;;;4996461;28;20230;-82
2023/07/06 11:00:16;;;;;;;2.72;1.40;;;22.90;99.90;;;;;;4995321;28;20180;-81
2023/07/06 11:02:44;;;;;;;1.98;1.52;;;23.00;99.90;;;;;;4995112;28;20185;-81
2023/07/06 11:05:24;;;;;;;2.65;1.30;;;23.50;99.90;;;;;;4995417;28;20171;-82
2023/07/06 11:07:52;;;;;;;3.17;1.55;;;23.90;99.90;;;;;;4994862;28;20164;-83
2023/07/06 11:10:42;;;;;;;2.42;1.38;;;23.90;99.90;;;;;;4991611;28;20198;-81
2023/07/06 11:13:08;;;;;;;1.48;1.30;;;23.80;99.90;;;;;;4994802;28;20664;-82
2023/07/06 11:15:46;;;;;;;3.13;1.60;;;23.70;99.90;;;;;;4996329;28;20678;-82
2023/07/06 11:18:18;;;;;;;3.42;1.30;;;23.60;99.90;;;;;;4999150;28;20186;-83
2023/07/06 11:21:20;;;;;;;1.70;1.50;;;23.50;99.90;;;;;;5005247;28;20173;-82
2023/07/06 11:23:50;;;;;;;2.72;1.52;;;23.70;99.90;;;;;;4985879;28;20612;-81
2023/07/06 11:26:48;;;;;;;1.85;1.50;;;23.70;99.90;;;;;;4999055;28;20203;-81
2023/07/06 11:29:16;;;;;;;3.78;1.90;;;23.60;99.90;;;;;;5021095;22;20242;-79
2023/07/06 11:31:58;;;;;;;2.30;1.40;;;23.50;99.90;;;;;;4995803;28;20184;-81
2023/07/06 11:34:51;;;;;;;1.88;1.77;;;23.40;99.90;;;;;;4998557;28;20210;-80
2023/07/06 11:37:32;;;;;;;2.65;1.40;;;23.50;99.90;;;;;;4990131;28;20200;-82
2023/07/06 11:40:11;;;;;;;2.00;1.60;;;23.50;99.90;;;;;;4990672;28;21315;-82
2023/07/06 11:42:56;;;;;;;2.47;1.65;;;23.30;99.90;;;;;;4990035;28;20176;-81
2023/07/06 11:45:33;;;;;;;2.65;1.42;;;23.30;99.90;;;;;;5005651;28;20235;-82
2023/07/06 11:48:16;;;;;;;1.95;1.45;;;23.70;99.90;;;;;;4988125;28;20168;-80
2023/07/06 11:50:42;;;;;;;2.88;1.55;;;23.90;99.90;;;;;;4988765;28;20217;-83
2023/07/06 11:56:18;;;;;;;3.35;1.50;;;24.00;99.90;;;;;;4990557;28;20271;-84
2023/07/06 11:58:55;;;;;;;2.38;1.80;;;24.10;99.90;;;;;;4989171;28;20207;-81
2023/07/06 12:01:40;;;;;;;2.60;1.70;;;24.10;99.90;;;;;;4987969;28;20589;-83
2023/07/06 12:04:20;;;;;;;2.75;1.70;;;23.90;99.90;;;;;;4989947;28;20250;-82
2023/07/06 12:06:48;;;;;;;1.52;1.42;;;23.80;99.90;;;;;;4989531;28;20223;-81
2023/07/06 12:09:19;;;;;;;2.30;1.70;;;23.90;99.90;;;;;;5004005;28;20720;-82
2023/07/06 12:11:51;;;;;;;1.95;1.52;;;23.90;99.90;;;;;;4986694;28;20211;-81
2023/07/06 12:14:21;;;;;;;2.92;1.70;;;23.70;99.90;;;;;;4989129;28;20307;-82
2023/07/06 12:16:51;;;;;;;2.00;1.48;;;23.70;1.00;;;;;;4988166;28;20200;-81
2023/07/06 12:19:17;;;;;;;3.30;1.92;;;23.60;1.00;;;;;;4988693;28;20219;-81
2023/07/06 12:21:57;;;;;;;3.22;1.52;;;23.60;99.90;;;;;;4988579;28;20531;-81
2023/07/06 12:24:27;;;;;;;3.38;1.60;;;23.30;99.90;;;;;;4988206;28;20191;-81
2023/07/06 12:26:57;;;;;;;3.50;1.88;;;23.60;1.00;;;;;;5004006;28;20208;-81
2023/07/06 12:29:26;;;;;;;3.80;1.58;;;23.50;1.00;;;;;;4985982;28;20291;-80
2023/07/06 12:31:54;;;;;;;1.85;1.58;;;23.50;1.00;;;;;;4987380;28;20192;-81
2023/07/06 12:34:25;;;;;;;3.22;1.50;;;23.60;1.00;;;;;;4988795;28;20207;-80
2023/07/06 12:36:56;;;;;;;3.20;1.70;;;23.80;1.00;;;;;;4988779;28;20204;-81
2023/07/06 12:39:23;;;;;;;2.65;1.50;;;24.10;1.00;;;;;;5004183;28;20176;-81
2023/07/06 12:41:51;;;;;;;3.13;1.45;;;24.10;1.00;;;;;;4987711;28;20212;-80
2023/07/06 12:44:18;;;;;;;1.50;1.20;;;24.20;99.90;;;;;;4989505;28;20188;-79
2023/07/06 12:46:51;;;;;;;1.40;1.30;;;24.20;99.90;;;;;;4988046;28;20722;-81
2023/07/06 12:49:22;;;;;;;1.70;1.45;;;24.10;1.00;;;;;;4986827;28;20184;-81
2023/07/06 12:51:54;;;;;;;1.60;1.17;;;24.00;99.90;;;;;;4988657;28;20172;-82
2023/07/06 12:54:22;;;;;;;3.10;1.20;;;24.00;99.90;;;;;;4988949;28;20674;-80
2023/07/06 12:56:59;;;;;;;2.10;1.58;;;23.80;1.00;;;;;;4988348;28;20255;-81
2023/07/06 12:59:32;;;;;;;1.20;1.10;;;23.70;1.00;;;;;;4988785;28;20689;-80
2023/07/06 13:01:59;;;;;;;4.85;1.33;;;23.70;99.90;;;;;;4989479;28;20211;-80
2023/07/06 13:04:43;;;;;;;1.55;1.20;;;23.70;99.90;;;;;;4986799;28;20222;-82
2023/07/06 13:07:08;;;;;;;2.25;1.33;;;23.90;99.90;;;;;;4987872;28;20212;-80
2023/07/06 13:09:34;;;;;;;1.30;1.10;;;24.10;99.90;;;;;;4988896;28;20247;-79